createdAt,value
2022-07-29T00:00:03.364Z,3.42
2022-07-29T00:03:07.859Z,3.05
2022-07-29T00:06:10.949Z,3.53
2022-07-29T00:09:14.039Z,3.10
2022-07-29T00:12:17.486Z,3.17
2022-07-29T00:15:28.845Z,3.10
2022-07-29T00:18:32.117Z,3.40
2022-07-29T00:21:35.135Z,3.33
2022-07-29T00:24:38.157Z,3.20
2022-07-29T00:27:41.303Z,3.00
2022-07-29T00:30:44.589Z,3.05
2022-07-29T00:33:47.454Z,3.10
2022-07-29T00:36:50.421Z,3.13
2022-07-29T00:39:53.228Z,3.33
2022-07-29T00:42:56.358Z,3.70
2022-07-29T00:45:59.600Z,2.90
2022-07-29T00:49:05.548Z,2.92
2022-07-29T00:52:10.408Z,3.63
2022-07-29T00:55:15.956Z,3.17
2022-07-29T00:58:18.896Z,3.10
2022-07-29T01:01:24.795Z,3.38
2022-07-29T01:04:28.080Z,3.50
2022-07-29T01:07:32.041Z,3.47
2022-07-29T01:10:37.991Z,3.00
2022-07-29T01:13:40.682Z,3.60
2022-07-29T01:17:15.971Z,3.92
2022-07-29T01:20:31.729Z,2.40
2022-07-29T01:23:41.094Z,3.70
2022-07-29T01:26:48.532Z,3.92
2022-07-29T01:29:57.005Z,3.15
2022-07-29T01:33:03.784Z,3.50
2022-07-29T01:36:14.409Z,3.80
2022-07-29T01:39:34.158Z,3.20
2022-07-29T01:42:43.241Z,3.08
2022-07-29T01:46:02.001Z,3.65
2022-07-29T01:49:12.852Z,4.20
2022-07-29T01:52:29.573Z,3.63
2022-07-29T01:55:43.288Z,3.33
2022-07-29T01:58:47.051Z,3.35
2022-07-29T02:01:51.731Z,3.58
2022-07-29T02:04:58.523Z,3.90
2022-07-29T02:08:01.941Z,3.58
2022-07-29T02:11:08.610Z,3.43
2022-07-29T02:14:13.235Z,3.47
2022-07-29T02:17:24.372Z,4.20
2022-07-29T02:20:28.103Z,3.58
2022-07-29T02:23:32.387Z,3.90
2022-07-29T02:26:55.322Z,3.30
2022-07-29T02:29:59.125Z,3.47
2022-07-29T02:33:02.833Z,4.00
2022-07-29T02:36:08.945Z,3.50
2022-07-29T02:39:13.858Z,4.45
2022-07-29T02:42:17.874Z,3.37
2022-07-29T02:45:20.936Z,4.03
2022-07-29T02:48:37.939Z,3.50
2022-07-29T02:51:50.747Z,3.10
2022-07-29T02:54:59.708Z,3.67
2022-07-29T02:58:05.173Z,3.33
2022-07-29T03:01:25.419Z,3.45
2022-07-29T03:04:29.734Z,3.45
2022-07-29T03:07:33.645Z,4.00
2022-07-29T03:10:40.727Z,3.17
2022-07-29T03:13:43.939Z,4.20
2022-07-29T03:16:47.918Z,3.15
2022-07-29T03:19:51.290Z,3.33
2022-07-29T03:22:54.145Z,3.17
2022-07-29T03:25:57.447Z,4.38
2022-07-29T03:29:00.895Z,3.57
2022-07-29T03:32:08.361Z,3.83
2022-07-29T03:35:13.738Z,4.40
2022-07-29T03:38:16.641Z,3.97
2022-07-29T03:41:22.521Z,4.55
2022-07-29T03:44:27.512Z,3.40
2022-07-29T03:47:49.612Z,3.20
2022-07-29T03:50:53.651Z,4.28
2022-07-29T03:53:56.565Z,3.65
2022-07-29T03:57:02.605Z,3.17
2022-07-29T04:00:06.740Z,3.73
2022-07-29T04:03:13.177Z,3.67
2022-07-29T04:06:21.447Z,4.30
2022-07-29T04:09:24.313Z,3.20
2022-07-29T04:12:27.247Z,3.97
2022-07-29T04:15:31.507Z,3.53
2022-07-29T04:18:35.212Z,3.45
2022-07-29T04:21:41.691Z,3.90
2022-07-29T04:24:45.602Z,4.93
2022-07-29T04:28:04.315Z,8.50
2022-07-29T04:31:11.120Z,10.17
2022-07-29T04:34:14.418Z,7.82
2022-07-29T04:37:17.756Z,8.55
2022-07-29T04:40:20.996Z,8.95
2022-07-29T04:43:24.158Z,6.43
2022-07-29T04:46:28.324Z,6.70
2022-07-29T04:49:34.262Z,9.82
2022-07-29T04:52:37.231Z,9.27
2022-07-29T04:55:40.195Z,6.05
2022-07-29T04:58:43.083Z,10.57
2022-07-29T05:01:46.057Z,6.10
2022-07-29T05:04:49.633Z,6.65
2022-07-29T05:07:53.068Z,7.60
2022-07-29T05:10:56.313Z,6.43
2022-07-29T05:13:59.608Z,6.38
2022-07-29T05:17:02.538Z,7.63
2022-07-29T05:20:06.556Z,7.80
